Andrew, Illinois
Current Conditions -  °F | °C
As of 12:52 PM on Thursday 18 Dec 2014 (Local Time) from KSPI Reporting Station
Overcast Overcast  
Wind Chill: -1°   Ceiling: 1700
Heat Index: -1°   Visibility: 10mi
Dew Point: -4°   Wind: 3mph
Humidity: 79%   Direction: 280°W
Pressure: 30.26"   Gusts: NA
Location:  39.854°N, 89.6295°W
Report Text: KSPI 181852Z 28003KT 10SM OVC017 M01/M04 A3026 RMK AO2 SLP253 T10111044
Loading
Personal Weather Stations






























Interactive Weather Map New forecast layout! Learn more

10-Day Weather Forecast

Advertisements
Track Severe Weather on mobile